sensor_id;sensor_type;location;lat;lon;timestamp;P1;durP1;ratioP1;P2;durP2;ratioP2
61473;SDS011;53694;49.784;30.150;2023-07-31T00:00:53;6.31;;;2.95;;
61473;SDS011;53694;49.784;30.150;2023-07-31T00:01:54;6.08;;;3.16;;
61473;SDS011;53694;49.784;30.150;2023-07-31T00:02:56;4.84;;;2.91;;
61473;SDS011;53694;49.784;30.150;2023-07-31T00:03:58;7.39;;;3.28;;
61473;SDS011;53694;49.784;30.150;2023-07-31T00:05:00;5.75;;;3.21;;
61473;SDS011;53694;49.784;30.150;2023-07-31T00:06:03;5.03;;;3.10;;
61473;SDS011;53694;49.784;30.150;2023-07-31T00:07:04;7.85;;;3.44;;
61473;SDS011;53694;49.784;30.150;2023-07-31T00:08:06;5.64;;;2.94;;
61473;SDS011;53694;49.784;30.150;2023-07-31T00:09:07;6.67;;;3.09;;
61473;SDS011;53694;49.784;30.150;2023-07-31T00:10:09;5.64;;;3.03;;
61473;SDS011;53694;49.784;30.150;2023-07-31T00:11:11;4.54;;;2.62;;
61473;SDS011;53694;49.784;30.150;2023-07-31T00:12:12;6.36;;;2.85;;
61473;SDS011;53694;49.784;30.150;2023-07-31T00:13:14;7.94;;;2.96;;
61473;SDS011;53694;49.784;30.150;2023-07-31T00:14:15;6.69;;;3.38;;
61473;SDS011;53694;49.784;30.150;2023-07-31T00:15:17;8.01;;;3.51;;
61473;SDS011;53694;49.784;30.150;2023-07-31T00:16:19;6.22;;;3.05;;
61473;SDS011;53694;49.784;30.150;2023-07-31T00:17:20;5.18;;;3.04;;
61473;SDS011;53694;49.784;30.150;2023-07-31T00:18:22;7.04;;;3.56;;
61473;SDS011;53694;49.784;30.150;2023-07-31T00:19:23;8.06;;;2.89;;
61473;SDS011;53694;49.784;30.150;2023-07-31T00:20:25;5.65;;;3.06;;
61473;SDS011;53694;49.784;30.150;2023-07-31T00:21:26;6.26;;;3.37;;
61473;SDS011;53694;49.784;30.150;2023-07-31T00:22:28;4.53;;;3.27;;
61473;SDS011;53694;49.784;30.150;2023-07-31T00:23:30;5.84;;;3.51;;
61473;SDS011;53694;49.784;30.150;2023-07-31T00:24:31;5.79;;;3.37;;
61473;SDS011;53694;49.784;30.150;2023-07-31T00:25:33;6.14;;;3.13;;
61473;SDS011;53694;49.784;30.150;2023-07-31T00:26:34;7.51;;;3.31;;
61473;SDS011;53694;49.784;30.150;2023-07-31T00:27:36;5.81;;;2.88;;
61473;SDS011;53694;49.784;30.150;2023-07-31T00:28:37;10.96;;;4.29;;
61473;SDS011;53694;49.784;30.150;2023-07-31T00:29:39;5.46;;;2.90;;
61473;SDS011;53694;49.784;30.150;2023-07-31T00:30:41;5.82;;;3.25;;
61473;SDS011;53694;49.784;30.150;2023-07-31T00:31:42;4.96;;;2.99;;
61473;SDS011;53694;49.784;30.150;2023-07-31T00:32:44;7.06;;;3.19;;
61473;SDS011;53694;49.784;30.150;2023-07-31T00:33:45;5.89;;;3.29;;
61473;SDS011;53694;49.784;30.150;2023-07-31T00:34:46;5.58;;;3.55;;
61473;SDS011;53694;49.784;30.150;2023-07-31T00:35:48;5.33;;;3.31;;
61473;SDS011;53694;49.784;30.150;2023-07-31T00:36:50;7.06;;;3.75;;
61473;SDS011;53694;49.784;30.150;2023-07-31T00:37:51;7.60;;;3.64;;
61473;SDS011;53694;49.784;30.150;2023-07-31T00:38:53;4.74;;;2.86;;
61473;SDS011;53694;49.784;30.150;2023-07-31T00:39:54;5.09;;;3.53;;
61473;SDS011;53694;49.784;30.150;2023-07-31T00:40:56;7.29;;;3.70;;
61473;SDS011;53694;49.784;30.150;2023-07-31T00:41:57;5.72;;;3.31;;
61473;SDS011;53694;49.784;30.150;2023-07-31T00:42:58;7.27;;;4.21;;
61473;SDS011;53694;49.784;30.150;2023-07-31T00:44:00;7.48;;;3.69;;
61473;SDS011;53694;49.784;30.150;2023-07-31T00:45:01;6.48;;;3.29;;
61473;SDS011;53694;49.784;30.150;2023-07-31T00:46:03;7.62;;;3.84;;
61473;SDS011;53694;49.784;30.150;2023-07-31T00:47:05;6.57;;;3.01;;
61473;SDS011;53694;49.784;30.150;2023-07-31T00:48:07;4.85;;;3.19;;
61473;SDS011;53694;49.784;30.150;2023-07-31T00:49:09;7.44;;;3.04;;
61473;SDS011;53694;49.784;30.150;2023-07-31T00:50:12;6.29;;;2.84;;
61473;SDS011;53694;49.784;30.150;2023-07-31T00:51:14;5.87;;;2.84;;
61473;SDS011;53694;49.784;30.150;2023-07-31T00:52:16;5.49;;;3.13;;
61473;SDS011;53694;49.784;30.150;2023-07-31T00:53:20;7.48;;;3.25;;
61473;SDS011;53694;49.784;30.150;2023-07-31T00:54:21;7.34;;;3.78;;
61473;SDS011;53694;49.784;30.150;2023-07-31T00:55:23;5.54;;;3.17;;
61473;SDS011;53694;49.784;30.150;2023-07-31T00:56:24;6.72;;;3.22;;
61473;SDS011;53694;49.784;30.150;2023-07-31T00:57:27;7.06;;;3.16;;
61473;SDS011;53694;49.784;30.150;2023-07-31T00:58:28;6.22;;;3.57;;
61473;SDS011;53694;49.784;30.150;2023-07-31T00:59:30;6.21;;;3.30;;
61473;SDS011;53694;49.784;30.150;2023-07-31T01:00:32;8.09;;;3.81;;
61473;SDS011;53694;49.784;30.150;2023-07-31T01:01:33;5.97;;;3.29;;
61473;SDS011;53694;49.784;30.150;2023-07-31T01:02:35;5.94;;;4.21;;
61473;SDS011;53694;49.784;30.150;2023-07-31T01:03:37;6.48;;;3.75;;
61473;SDS011;53694;49.784;30.150;2023-07-31T01:04:38;4.92;;;3.17;;
61473;SDS011;53694;49.784;30.150;2023-07-31T01:08:34;7.82;;;3.44;;
61473;SDS011;53694;49.784;30.150;2023-07-31T01:09:34;6.84;;;3.02;;
61473;SDS011;53694;49.784;30.150;2023-07-31T01:10:49;8.28;;;3.33;;
61473;SDS011;53694;49.784;30.150;2023-07-31T01:11:55;8.36;;;3.26;;
61473;SDS011;53694;49.784;30.150;2023-07-31T01:13:01;5.77;;;3.23;;
61473;SDS011;53694;49.784;30.150;2023-07-31T01:14:04;7.13;;;3.57;;
61473;SDS011;53694;49.784;30.150;2023-07-31T01:15:06;8.28;;;3.52;;
61473;SDS011;53694;49.784;30.150;2023-07-31T01:16:10;7.24;;;3.58;;
61473;SDS011;53694;49.784;30.150;2023-07-31T01:17:11;7.77;;;3.52;;
61473;SDS011;53694;49.784;30.150;2023-07-31T01:18:13;8.86;;;3.19;;
61473;SDS011;53694;49.784;30.150;2023-07-31T01:19:14;7.54;;;2.74;;
61473;SDS011;53694;49.784;30.150;2023-07-31T01:20:21;6.29;;;3.14;;
61473;SDS011;53694;49.784;30.150;2023-07-31T01:21:28;9.74;;;3.35;;
61473;SDS011;53694;49.784;30.150;2023-07-31T01:26:19;9.46;;;3.43;;
61473;SDS011;53694;49.784;30.150;2023-07-31T01:27:30;6.42;;;3.54;;
61473;SDS011;53694;49.784;30.150;2023-07-31T01:30:12;6.59;;;3.64;;
61473;SDS011;53694;49.784;30.150;2023-07-31T01:31:13;6.94;;;3.07;;
61473;SDS011;53694;49.784;30.150;2023-07-31T01:32:18;7.24;;;3.31;;
61473;SDS011;53694;49.784;30.150;2023-07-31T01:33:20;6.06;;;3.37;;
61473;SDS011;53694;49.784;30.150;2023-07-31T01:34:22;7.06;;;3.35;;
61473;SDS011;53694;49.784;30.150;2023-07-31T01:35:24;6.95;;;3.39;;
61473;SDS011;53694;49.784;30.150;2023-07-31T01:36:26;6.80;;;3.05;;
61473;SDS011;53694;49.784;30.150;2023-07-31T01:37:29;7.20;;;3.08;;
61473;SDS011;53694;49.784;30.150;2023-07-31T01:38:31;8.36;;;3.41;;
61473;SDS011;53694;49.784;30.150;2023-07-31T01:39:32;9.67;;;3.32;;
61473;SDS011;53694;49.784;30.150;2023-07-31T01:40:34;4.41;;;2.71;;
61473;SDS011;53694;49.784;30.150;2023-07-31T01:41:36;6.76;;;3.19;;
61473;SDS011;53694;49.784;30.150;2023-07-31T01:42:37;10.06;;;3.34;;
61473;SDS011;53694;49.784;30.150;2023-07-31T01:43:39;6.09;;;2.91;;
61473;SDS011;53694;49.784;30.150;2023-07-31T01:44:40;4.87;;;3.14;;
61473;SDS011;53694;49.784;30.150;2023-07-31T01:45:42;8.01;;;3.14;;
61473;SDS011;53694;49.784;30.150;2023-07-31T01:46:43;4.23;;;2.75;;
61473;SDS011;53694;49.784;30.150;2023-07-31T01:47:45;8.54;;;3.22;;
61473;SDS011;53694;49.784;30.150;2023-07-31T01:48:46;6.96;;;3.17;;
61473;SDS011;53694;49.784;30.150;2023-07-31T01:49:48;8.49;;;2.67;;
61473;SDS011;53694;49.784;30.150;2023-07-31T01:50:49;4.57;;;3.04;;
61473;SDS011;53694;49.784;30.150;2023-07-31T01:51:51;5.18;;;3.09;;
61473;SDS011;53694;49.784;30.150;2023-07-31T01:52:52;5.41;;;3.16;;
61473;SDS011;53694;49.784;30.150;2023-07-31T01:53:54;5.13;;;3.76;;
61473;SDS011;53694;49.784;30.150;2023-07-31T01:54:55;5.88;;;3.04;;
61473;SDS011;53694;49.784;30.150;2023-07-31T01:55:57;5.52;;;3.34;;
61473;SDS011;53694;49.784;30.150;2023-07-31T01:56:59;6.25;;;3.21;;
61473;SDS011;53694;49.784;30.150;2023-07-31T01:58:01;8.72;;;3.19;;
61473;SDS011;53694;49.784;30.150;2023-07-31T01:59:02;5.65;;;3.28;;
61473;SDS011;53694;49.784;30.150;2023-07-31T02:00:04;5.36;;;2.86;;
61473;SDS011;53694;49.784;30.150;2023-07-31T02:01:07;7.03;;;3.15;;
61473;SDS011;53694;49.784;30.150;2023-07-31T02:02:08;5.33;;;3.29;;
61473;SDS011;53694;49.784;30.150;2023-07-31T02:03:10;6.29;;;3.40;;
61473;SDS011;53694;49.784;30.150;2023-07-31T02:04:11;4.91;;;3.16;;
61473;SDS011;53694;49.784;30.150;2023-07-31T02:05:13;4.38;;;2.68;;
61473;SDS011;53694;49.784;30.150;2023-07-31T02:06:14;10.17;;;3.01;;
61473;SDS011;53694;49.784;30.150;2023-07-31T02:07:16;6.99;;;2.82;;
61473;SDS011;53694;49.784;30.150;2023-07-31T02:08:17;7.41;;;2.82;;
61473;SDS011;53694;49.784;30.150;2023-07-31T02:09:19;7.00;;;3.21;;
61473;SDS011;53694;49.784;30.150;2023-07-31T02:10:20;5.05;;;2.98;;
61473;SDS011;53694;49.784;30.150;2023-07-31T02:11:22;6.82;;;3.00;;
61473;SDS011;53694;49.784;30.150;2023-07-31T02:12:23;7.30;;;3.23;;
61473;SDS011;53694;49.784;30.150;2023-07-31T02:13:25;4.58;;;2.76;;
61473;SDS011;53694;49.784;30.150;2023-07-31T02:14:26;6.41;;;2.99;;
61473;SDS011;53694;49.784;30.150;2023-07-31T02:15:28;6.13;;;2.99;;
61473;SDS011;53694;49.784;30.150;2023-07-31T02:16:30;4.66;;;2.89;;
61473;SDS011;53694;49.784;30.150;2023-07-31T02:17:31;5.41;;;3.03;;
61473;SDS011;53694;49.784;30.150;2023-07-31T02:18:33;6.08;;;2.91;;
61473;SDS011;53694;49.784;30.150;2023-07-31T02:19:34;4.68;;;2.93;;
61473;SDS011;53694;49.784;30.150;2023-07-31T02:20:36;7.15;;;2.99;;
61473;SDS011;53694;49.784;30.150;2023-07-31T02:21:38;5.77;;;3.01;;
61473;SDS011;53694;49.784;30.150;2023-07-31T02:22:39;5.92;;;3.06;;
61473;SDS011;53694;49.784;30.150;2023-07-31T02:23:41;8.81;;;3.36;;
61473;SDS011;53694;49.784;30.150;2023-07-31T02:24:42;7.19;;;3.44;;
61473;SDS011;53694;49.784;30.150;2023-07-31T02:25:44;5.81;;;2.64;;
61473;SDS011;53694;49.784;30.150;2023-07-31T02:26:46;7.95;;;2.83;;
61473;SDS011;53694;49.784;30.150;2023-07-31T02:27:48;5.26;;;3.05;;
61473;SDS011;53694;49.784;30.150;2023-07-31T02:28:49;5.01;;;3.24;;
61473;SDS011;53694;49.784;30.150;2023-07-31T02:29:50;6.64;;;2.85;;
61473;SDS011;53694;49.784;30.150;2023-07-31T02:30:52;5.57;;;2.84;;
61473;SDS011;53694;49.784;30.150;2023-07-31T02:31:53;10.73;;;3.22;;
61473;SDS011;53694;49.784;30.150;2023-07-31T02:32:55;6.84;;;3.01;;
61473;SDS011;53694;49.784;30.150;2023-07-31T02:33:56;5.27;;;2.79;;
61473;SDS011;53694;49.784;30.150;2023-07-31T02:34:58;7.71;;;3.45;;
61473;SDS011;53694;49.784;30.150;2023-07-31T02:35:59;7.67;;;4.21;;
61473;SDS011;53694;49.784;30.150;2023-07-31T02:37:01;7.68;;;3.79;;
61473;SDS011;53694;49.784;30.150;2023-07-31T02:38:03;7.50;;;3.55;;
61473;SDS011;53694;49.784;30.150;2023-07-31T02:39:04;6.28;;;3.55;;
61473;SDS011;53694;49.784;30.150;2023-07-31T02:40:06;6.54;;;3.59;;
61473;SDS011;53694;49.784;30.150;2023-07-31T02:41:08;7.43;;;3.45;;
61473;SDS011;53694;49.784;30.150;2023-07-31T02:42:10;7.57;;;3.49;;
61473;SDS011;53694;49.784;30.150;2023-07-31T02:43:12;9.91;;;3.54;;
61473;SDS011;53694;49.784;30.150;2023-07-31T02:44:13;6.41;;;3.17;;
61473;SDS011;53694;49.784;30.150;2023-07-31T02:45:15;11.33;;;3.87;;
61473;SDS011;53694;49.784;30.150;2023-07-31T02:46:17;6.79;;;3.25;;
61473;SDS011;53694;49.784;30.150;2023-07-31T02:47:18;7.30;;;2.90;;
61473;SDS011;53694;49.784;30.150;2023-07-31T02:48:20;6.57;;;3.06;;
61473;SDS011;53694;49.784;30.150;2023-07-31T02:49:21;5.08;;;3.06;;
61473;SDS011;53694;49.784;30.150;2023-07-31T02:50:23;6.49;;;3.14;;
61473;SDS011;53694;49.784;30.150;2023-07-31T02:51:25;6.34;;;3.43;;
61473;SDS011;53694;49.784;30.150;2023-07-31T02:52:26;4.75;;;3.21;;
61473;SDS011;53694;49.784;30.150;2023-07-31T02:53:28;6.46;;;3.14;;
61473;SDS011;53694;49.784;30.150;2023-07-31T02:54:29;4.40;;;2.94;;
61473;SDS011;53694;49.784;30.150;2023-07-31T02:55:31;6.64;;;3.24;;
61473;SDS011;53694;49.784;30.150;2023-07-31T02:56:32;10.66;;;3.55;;
61473;SDS011;53694;49.784;30.150;2023-07-31T02:57:34;6.04;;;3.15;;
61473;SDS011;53694;49.784;30.150;2023-07-31T02:58:35;6.42;;;3.33;;
61473;SDS011;53694;49.784;30.150;2023-07-31T02:59:37;7.00;;;3.43;;
61473;SDS011;53694;49.784;30.150;2023-07-31T03:00:46;7.26;;;3.40;;
61473;SDS011;53694;49.784;30.150;2023-07-31T03:01:45;5.01;;;3.48;;
61473;SDS011;53694;49.784;30.150;2023-07-31T03:02:47;6.45;;;3.39;;
61473;SDS011;53694;49.784;30.150;2023-07-31T03:03:48;5.63;;;3.31;;
61473;SDS011;53694;49.784;30.150;2023-07-31T03:04:50;7.32;;;3.84;;
61473;SDS011;53694;49.784;30.150;2023-07-31T03:05:51;6.14;;;3.30;;
61473;SDS011;53694;49.784;30.150;2023-07-31T03:06:53;8.65;;;3.87;;
61473;SDS011;53694;49.784;30.150;2023-07-31T03:07:55;5.90;;;3.37;;
61473;SDS011;53694;49.784;30.150;2023-07-31T03:08:56;11.14;;;3.77;;
61473;SDS011;53694;49.784;30.150;2023-07-31T03:09:58;7.02;;;3.39;;
61473;SDS011;53694;49.784;30.150;2023-07-31T03:10:59;5.81;;;3.56;;
61473;SDS011;53694;49.784;30.150;2023-07-31T03:12:01;9.46;;;3.94;;
61473;SDS011;53694;49.784;30.150;2023-07-31T03:13:02;6.48;;;3.82;;
61473;SDS011;53694;49.784;30.150;2023-07-31T03:14:04;6.12;;;3.79;;
61473;SDS011;53694;49.784;30.150;2023-07-31T03:15:06;7.38;;;4.07;;
61473;SDS011;53694;49.784;30.150;2023-07-31T03:16:08;6.15;;;3.67;;
61473;SDS011;53694;49.784;30.150;2023-07-31T03:17:10;6.24;;;3.84;;
61473;SDS011;53694;49.784;30.150;2023-07-31T03:18:11;9.49;;;3.98;;
61473;SDS011;53694;49.784;30.150;2023-07-31T03:19:13;7.67;;;3.73;;
61473;SDS011;53694;49.784;30.150;2023-07-31T03:20:15;7.71;;;3.70;;
61473;SDS011;53694;49.784;30.150;2023-07-31T03:21:16;5.97;;;3.21;;
61473;SDS011;53694;49.784;30.150;2023-07-31T03:22:18;6.59;;;3.68;;
61473;SDS011;53694;49.784;30.150;2023-07-31T03:23:19;7.01;;;3.69;;
61473;SDS011;53694;49.784;30.150;2023-07-31T03:24:21;12.66;;;6.81;;
61473;SDS011;53694;49.784;30.150;2023-07-31T03:25:22;7.08;;;4.46;;
61473;SDS011;53694;49.784;30.150;2023-07-31T03:26:24;8.04;;;4.33;;
61473;SDS011;53694;49.784;30.150;2023-07-31T03:27:25;9.32;;;4.11;;
61473;SDS011;53694;49.784;30.150;2023-07-31T03:28:27;6.10;;;4.25;;
61473;SDS011;53694;49.784;30.150;2023-07-31T03:29:28;6.93;;;3.91;;
61473;SDS011;53694;49.784;30.150;2023-07-31T03:30:30;6.95;;;4.10;;
61473;SDS011;53694;49.784;30.150;2023-07-31T03:31:31;6.76;;;4.02;;
61473;SDS011;53694;49.784;30.150;2023-07-31T03:32:33;6.01;;;3.51;;
61473;SDS011;53694;49.784;30.150;2023-07-31T03:33:34;6.46;;;3.90;;
61473;SDS011;53694;49.784;30.150;2023-07-31T03:34:36;8.68;;;4.29;;
61473;SDS011;53694;49.784;30.150;2023-07-31T03:35:38;7.88;;;3.63;;
61473;SDS011;53694;49.784;30.150;2023-07-31T03:36:39;5.69;;;3.41;;
61473;SDS011;53694;49.784;30.150;2023-07-31T03:37:41;7.68;;;3.82;;
61473;SDS011;53694;49.784;30.150;2023-07-31T03:38:42;9.14;;;3.86;;
61473;SDS011;53694;49.784;30.150;2023-07-31T03:39:44;9.59;;;4.43;;
61473;SDS011;53694;49.784;30.150;2023-07-31T03:40:46;8.92;;;4.64;;
61473;SDS011;53694;49.784;30.150;2023-07-31T03:41:47;7.06;;;4.55;;
61473;SDS011;53694;49.784;30.150;2023-07-31T03:42:48;7.00;;;4.64;;
61473;SDS011;53694;49.784;30.150;2023-07-31T03:43:50;7.30;;;4.73;;
61473;SDS011;53694;49.784;30.150;2023-07-31T03:44:52;7.23;;;4.36;;
61473;SDS011;53694;49.784;30.150;2023-07-31T03:45:54;7.73;;;4.42;;
61473;SDS011;53694;49.784;30.150;2023-07-31T03:46:55;8.41;;;4.29;;
61473;SDS011;53694;49.784;30.150;2023-07-31T03:47:57;6.76;;;4.61;;
61473;SDS011;53694;49.784;30.150;2023-07-31T03:48:59;7.86;;;5.01;;
61473;SDS011;53694;49.784;30.150;2023-07-31T03:50:00;9.29;;;4.34;;
61473;SDS011;53694;49.784;30.150;2023-07-31T03:51:02;8.55;;;4.44;;
61473;SDS011;53694;49.784;30.150;2023-07-31T03:52:03;9.70;;;4.18;;
61473;SDS011;53694;49.784;30.150;2023-07-31T03:53:05;7.38;;;4.15;;
61473;SDS011;53694;49.784;30.150;2023-07-31T03:54:07;7.31;;;4.40;;
61473;SDS011;53694;49.784;30.150;2023-07-31T03:55:08;7.67;;;4.63;;
61473;SDS011;53694;49.784;30.150;2023-07-31T03:56:10;9.58;;;5.80;;
61473;SDS011;53694;49.784;30.150;2023-07-31T03:57:12;7.73;;;4.26;;
61473;SDS011;53694;49.784;30.150;2023-07-31T03:58:13;6.83;;;4.49;;
61473;SDS011;53694;49.784;30.150;2023-07-31T03:59:15;6.40;;;3.85;;
61473;SDS011;53694;49.784;30.150;2023-07-31T04:00:17;6.50;;;4.04;;
61473;SDS011;53694;49.784;30.150;2023-07-31T04:01:19;6.30;;;3.94;;
61473;SDS011;53694;49.784;30.150;2023-07-31T04:02:21;8.83;;;4.26;;
61473;SDS011;53694;49.784;30.150;2023-07-31T04:03:22;9.38;;;4.27;;
61473;SDS011;53694;49.784;30.150;2023-07-31T04:04:24;6.73;;;3.99;;
61473;SDS011;53694;49.784;30.150;2023-07-31T04:05:25;6.96;;;4.09;;
61473;SDS011;53694;49.784;30.150;2023-07-31T04:06:27;5.86;;;3.93;;
61473;SDS011;53694;49.784;30.150;2023-07-31T04:07:29;6.77;;;3.65;;
61473;SDS011;53694;49.784;30.150;2023-07-31T04:08:30;7.21;;;4.26;;
61473;SDS011;53694;49.784;30.150;2023-07-31T04:09:32;5.05;;;3.51;;
61473;SDS011;53694;49.784;30.150;2023-07-31T04:10:33;8.41;;;3.69;;
61473;SDS011;53694;49.784;30.150;2023-07-31T04:11:35;8.12;;;3.72;;
61473;SDS011;53694;49.784;30.150;2023-07-31T04:12:36;6.46;;;3.58;;
61473;SDS011;53694;49.784;30.150;2023-07-31T04:13:38;7.76;;;3.77;;
61473;SDS011;53694;49.784;30.150;2023-07-31T04:14:40;7.47;;;3.81;;
61473;SDS011;53694;49.784;30.150;2023-07-31T04:15:41;7.81;;;3.72;;
61473;SDS011;53694;49.784;30.150;2023-07-31T04:16:43;7.10;;;3.94;;
61473;SDS011;53694;49.784;30.150;2023-07-31T04:17:45;9.17;;;5.04;;
61473;SDS011;53694;49.784;30.150;2023-07-31T04:18:46;7.46;;;5.09;;
61473;SDS011;53694;49.784;30.150;2023-07-31T04:19:47;7.92;;;4.96;;
61473;SDS011;53694;49.784;30.150;2023-07-31T04:20:49;7.46;;;5.01;;
61473;SDS011;53694;49.784;30.150;2023-07-31T04:21:51;8.86;;;5.34;;
61473;SDS011;53694;49.784;30.150;2023-07-31T04:22:52;6.61;;;4.36;;
61473;SDS011;53694;49.784;30.150;2023-07-31T04:23:54;11.04;;;5.51;;
61473;SDS011;53694;49.784;30.150;2023-07-31T04:24:55;6.79;;;5.10;;
61473;SDS011;53694;49.784;30.150;2023-07-31T04:25:57;6.09;;;4.54;;
61473;SDS011;53694;49.784;30.150;2023-07-31T04:26:59;9.52;;;4.99;;
61473;SDS011;53694;49.784;30.150;2023-07-31T04:28:00;7.71;;;4.89;;
61473;SDS011;53694;49.784;30.150;2023-07-31T04:29:02;9.45;;;4.67;;
61473;SDS011;53694;49.784;30.150;2023-07-31T04:30:05;10.55;;;4.63;;
61473;SDS011;53694;49.784;30.150;2023-07-31T04:31:07;8.56;;;4.47;;
61473;SDS011;53694;49.784;30.150;2023-07-31T04:32:09;8.36;;;4.43;;
61473;SDS011;53694;49.784;30.150;2023-07-31T04:33:10;7.63;;;4.14;;
61473;SDS011;53694;49.784;30.150;2023-07-31T04:34:12;7.26;;;4.61;;
61473;SDS011;53694;49.784;30.150;2023-07-31T04:35:13;6.80;;;4.61;;
61473;SDS011;53694;49.784;30.150;2023-07-31T04:36:15;7.41;;;4.31;;
61473;SDS011;53694;49.784;30.150;2023-07-31T04:37:17;6.66;;;4.14;;
61473;SDS011;53694;49.784;30.150;2023-07-31T04:38:22;7.66;;;4.94;;
61473;SDS011;53694;49.784;30.150;2023-07-31T04:39:22;9.08;;;5.01;;
61473;SDS011;53694;49.784;30.150;2023-07-31T04:40:24;7.35;;;4.22;;
61473;SDS011;53694;49.784;30.150;2023-07-31T04:41:25;6.57;;;3.94;;
61473;SDS011;53694;49.784;30.150;2023-07-31T04:42:27;8.04;;;4.37;;
61473;SDS011;53694;49.784;30.150;2023-07-31T04:43:28;6.44;;;3.89;;
61473;SDS011;53694;49.784;30.150;2023-07-31T04:44:30;9.06;;;4.56;;
61473;SDS011;53694;49.784;30.150;2023-07-31T04:45:31;8.70;;;4.13;;
61473;SDS011;53694;49.784;30.150;2023-07-31T04:46:33;8.51;;;4.12;;
61473;SDS011;53694;49.784;30.150;2023-07-31T04:47:35;7.14;;;4.51;;
61473;SDS011;53694;49.784;30.150;2023-07-31T04:48:36;6.39;;;4.48;;
61473;SDS011;53694;49.784;30.150;2023-07-31T04:49:38;6.77;;;4.20;;
61473;SDS011;53694;49.784;30.150;2023-07-31T04:50:39;8.34;;;4.48;;
61473;SDS011;53694;49.784;30.150;2023-07-31T04:51:41;6.17;;;4.11;;
61473;SDS011;53694;49.784;30.150;2023-07-31T04:52:42;8.79;;;4.65;;
61473;SDS011;53694;49.784;30.150;2023-07-31T04:53:44;6.33;;;4.22;;
61473;SDS011;53694;49.784;30.150;2023-07-31T04:54:45;7.46;;;4.43;;
61473;SDS011;53694;49.784;30.150;2023-07-31T04:55:47;7.52;;;4.27;;
61473;SDS011;53694;49.784;30.150;2023-07-31T04:56:49;11.11;;;5.69;;
61473;SDS011;53694;49.784;30.150;2023-07-31T04:57:50;7.92;;;5.10;;
61473;SDS011;53694;49.784;30.150;2023-07-31T04:58:52;8.31;;;4.68;;
61473;SDS011;53694;49.784;30.150;2023-07-31T04:59:53;8.71;;;4.39;;
61473;SDS011;53694;49.784;30.150;2023-07-31T05:00:55;10.90;;;4.44;;
61473;SDS011;53694;49.784;30.150;2023-07-31T05:01:57;7.47;;;4.53;;
61473;SDS011;53694;49.784;30.150;2023-07-31T05:02:58;7.91;;;4.84;;
61473;SDS011;53694;49.784;30.150;2023-07-31T05:04:00;6.89;;;4.40;;
61473;SDS011;53694;49.784;30.150;2023-07-31T05:05:01;7.71;;;4.59;;
61473;SDS011;53694;49.784;30.150;2023-07-31T05:06:03;8.03;;;4.41;;
61473;SDS011;53694;49.784;30.150;2023-07-31T05:07:05;6.30;;;4.21;;
61473;SDS011;53694;49.784;30.150;2023-07-31T05:08:06;6.79;;;4.15;;
61473;SDS011;53694;49.784;30.150;2023-07-31T05:09:08;6.24;;;4.27;;
61473;SDS011;53694;49.784;30.150;2023-07-31T05:10:10;7.48;;;4.31;;
61473;SDS011;53694;49.784;30.150;2023-07-31T05:11:12;10.14;;;4.96;;
61473;SDS011;53694;49.784;30.150;2023-07-31T05:12:13;6.11;;;4.26;;
61473;SDS011;53694;49.784;30.150;2023-07-31T05:13:15;6.38;;;4.15;;
61473;SDS011;53694;49.784;30.150;2023-07-31T05:14:17;6.69;;;4.42;;
61473;SDS011;53694;49.784;30.150;2023-07-31T05:15:18;7.68;;;4.35;;
61473;SDS011;53694;49.784;30.150;2023-07-31T05:16:20;8.01;;;4.23;;
61473;SDS011;53694;49.784;30.150;2023-07-31T05:17:21;6.83;;;4.50;;
61473;SDS011;53694;49.784;30.150;2023-07-31T05:18:23;5.88;;;4.27;;
61473;SDS011;53694;49.784;30.150;2023-07-31T05:19:24;7.96;;;4.47;;
61473;SDS011;53694;49.784;30.150;2023-07-31T05:20:26;6.96;;;4.49;;
61473;SDS011;53694;49.784;30.150;2023-07-31T05:21:27;8.24;;;4.69;;
61473;SDS011;53694;49.784;30.150;2023-07-31T05:22:29;6.00;;;4.26;;
61473;SDS011;53694;49.784;30.150;2023-07-31T05:23:31;7.12;;;4.54;;
61473;SDS011;53694;49.784;30.150;2023-07-31T05:24:32;9.75;;;5.91;;
61473;SDS011;53694;49.784;30.150;2023-07-31T05:25:34;6.19;;;4.48;;
61473;SDS011;53694;49.784;30.150;2023-07-31T05:26:35;9.34;;;4.56;;
61473;SDS011;53694;49.784;30.150;2023-07-31T05:27:37;7.36;;;4.57;;
61473;SDS011;53694;49.784;30.150;2023-07-31T05:28:38;6.68;;;4.20;;
61473;SDS011;53694;49.784;30.150;2023-07-31T05:29:40;7.91;;;4.59;;
61473;SDS011;53694;49.784;30.150;2023-07-31T05:30:42;8.11;;;4.54;;
61473;SDS011;53694;49.784;30.150;2023-07-31T05:31:43;7.64;;;4.79;;
61473;SDS011;53694;49.784;30.150;2023-07-31T05:32:45;6.01;;;4.43;;
61473;SDS011;53694;49.784;30.150;2023-07-31T05:33:46;6.43;;;4.31;;
61473;SDS011;53694;49.784;30.150;2023-07-31T05:34:50;7.95;;;6.23;;
61473;SDS011;53694;49.784;30.150;2023-07-31T05:35:54;8.21;;;4.91;;
61473;SDS011;53694;49.784;30.150;2023-07-31T05:36:56;8.40;;;4.87;;
61473;SDS011;53694;49.784;30.150;2023-07-31T05:37:57;9.61;;;5.81;;
61473;SDS011;53694;49.784;30.150;2023-07-31T05:38:58;11.15;;;5.50;;
61473;SDS011;53694;49.784;30.150;2023-07-31T05:40:00;9.32;;;5.81;;
61473;SDS011;53694;49.784;30.150;2023-07-31T05:41:01;11.38;;;6.91;;
61473;SDS011;53694;49.784;30.150;2023-07-31T05:42:03;8.10;;;6.11;;
61473;SDS011;53694;49.784;30.150;2023-07-31T05:43:05;9.40;;;5.89;;
61473;SDS011;53694;49.784;30.150;2023-07-31T05:44:07;9.52;;;5.36;;
61473;SDS011;53694;49.784;30.150;2023-07-31T05:45:08;8.89;;;5.07;;
61473;SDS011;53694;49.784;30.150;2023-07-31T05:46:12;8.74;;;5.50;;
61473;SDS011;53694;49.784;30.150;2023-07-31T05:47:13;9.75;;;5.32;;
61473;SDS011;53694;49.784;30.150;2023-07-31T05:48:15;8.34;;;5.19;;
61473;SDS011;53694;49.784;30.150;2023-07-31T05:49:16;8.32;;;6.20;;
61473;SDS011;53694;49.784;30.150;2023-07-31T05:50:18;9.27;;;5.94;;
61473;SDS011;53694;49.784;30.150;2023-07-31T05:51:19;7.93;;;5.67;;
61473;SDS011;53694;49.784;30.150;2023-07-31T05:52:21;10.57;;;6.50;;
61473;SDS011;53694;49.784;30.150;2023-07-31T05:53:22;8.67;;;5.51;;
61473;SDS011;53694;49.784;30.150;2023-07-31T05:54:24;8.92;;;5.54;;
61473;SDS011;53694;49.784;30.150;2023-07-31T05:55:26;8.21;;;5.34;;
61473;SDS011;53694;49.784;30.150;2023-07-31T05:56:27;10.56;;;5.93;;
61473;SDS011;53694;49.784;30.150;2023-07-31T05:57:29;8.61;;;5.21;;
61473;SDS011;53694;49.784;30.150;2023-07-31T05:58:30;7.89;;;5.36;;
61473;SDS011;53694;49.784;30.150;2023-07-31T05:59:32;9.06;;;5.08;;
61473;SDS011;53694;49.784;30.150;2023-07-31T06:00:34;11.91;;;8.98;;
61473;SDS011;53694;49.784;30.150;2023-07-31T06:01:35;19.21;;;14.34;;
61473;SDS011;53694;49.784;30.150;2023-07-31T06:02:37;12.78;;;9.35;;
61473;SDS011;53694;49.784;30.150;2023-07-31T06:03:39;10.77;;;6.94;;
61473;SDS011;53694;49.784;30.150;2023-07-31T06:04:40;10.58;;;6.89;;
61473;SDS011;53694;49.784;30.150;2023-07-31T06:05:42;10.91;;;8.16;;
61473;SDS011;53694;49.784;30.150;2023-07-31T06:06:44;11.51;;;8.40;;
61473;SDS011;53694;49.784;30.150;2023-07-31T06:07:45;7.14;;;5.66;;
61473;SDS011;53694;49.784;30.150;2023-07-31T06:08:47;8.84;;;6.16;;
61473;SDS011;53694;49.784;30.150;2023-07-31T06:09:48;8.53;;;6.17;;
61473;SDS011;53694;49.784;30.150;2023-07-31T06:10:50;8.09;;;5.09;;
61473;SDS011;53694;49.784;30.150;2023-07-31T06:11:51;7.08;;;5.10;;
61473;SDS011;53694;49.784;30.150;2023-07-31T06:12:53;7.73;;;4.87;;
61473;SDS011;53694;49.784;30.150;2023-07-31T06:13:55;8.10;;;5.29;;
61473;SDS011;53694;49.784;30.150;2023-07-31T06:14:56;8.29;;;5.11;;